createdAt,value
2023-03-08T00:01:32.599Z,0.70
2023-03-08T00:04:03.181Z,0.70
2023-03-08T00:06:32.467Z,0.82
2023-03-08T00:09:03.401Z,0.82
2023-03-08T00:11:32.610Z,0.80
2023-03-08T00:14:03.290Z,5.13
2023-03-08T00:16:32.398Z,0.90
2023-03-08T00:19:02.808Z,0.80
2023-03-08T00:21:31.784Z,2.10
2023-03-08T00:24:00.806Z,1.23
2023-03-08T00:26:29.801Z,1.10
2023-03-08T00:28:58.893Z,1.02
2023-03-08T00:33:58.842Z,1.00
2023-03-08T00:36:29.330Z,1.15
2023-03-08T00:38:58.772Z,1.08
2023-03-08T00:41:27.744Z,1.00
2023-03-08T00:43:56.831Z,1.10
2023-03-08T00:46:27.235Z,1.00
2023-03-08T00:48:56.222Z,1.20
2023-03-08T00:51:25.204Z,1.00
2023-03-08T00:53:56.631Z,1.00
2023-03-08T00:56:25.657Z,1.00
2023-03-08T00:58:54.646Z,0.90
2023-03-08T01:01:23.929Z,1.00
2023-03-08T01:03:55.289Z,0.93
2023-03-08T01:06:25.591Z,0.90
2023-03-08T01:08:56.067Z,0.90
2023-03-08T01:11:27.841Z,0.85
2023-03-08T01:13:57.243Z,0.60
2023-03-08T01:16:29.027Z,0.73
2023-03-08T01:18:59.669Z,0.70
2023-03-08T01:21:29.789Z,0.80
2023-03-08T01:24:00.564Z,1.10
2023-03-08T01:26:30.699Z,0.85
2023-03-08T01:28:59.832Z,0.90
2023-03-08T01:31:31.224Z,0.63
2023-03-08T01:34:01.991Z,0.90
2023-03-08T01:36:31.191Z,0.70
2023-03-08T01:39:03.912Z,0.60
2023-03-08T01:41:33.651Z,0.65
2023-03-08T01:44:03.464Z,0.80
2023-03-08T01:46:33.597Z,0.95
2023-03-08T01:49:15.631Z,0.60
2023-03-08T01:51:47.585Z,0.70
2023-03-08T01:54:21.105Z,0.68
2023-03-08T01:56:53.683Z,0.70
2023-03-08T01:59:24.244Z,0.63
2023-03-08T02:01:53.710Z,1.05
2023-03-08T02:04:23.915Z,0.60
2023-03-08T02:06:53.136Z,0.65
2023-03-08T02:09:26.621Z,0.85
2023-03-08T02:12:00.289Z,0.60
2023-03-08T02:14:30.196Z,0.70
2023-03-08T02:16:59.556Z,1.00
2023-03-08T02:19:35.917Z,0.68
2023-03-08T02:22:12.890Z,0.50
2023-03-08T02:24:43.606Z,0.60
2023-03-08T02:27:19.015Z,0.60
2023-03-08T02:29:48.476Z,0.60
2023-03-08T02:32:18.028Z,0.70
2023-03-08T02:34:47.173Z,0.65
2023-03-08T02:37:16.282Z,1.00
2023-03-08T02:39:46.735Z,0.70
2023-03-08T02:42:15.795Z,0.60
2023-03-08T02:44:45.301Z,0.77
2023-03-08T02:47:14.300Z,0.68
2023-03-08T02:49:43.375Z,0.60
2023-03-08T02:52:12.418Z,0.65
2023-03-08T02:54:41.417Z,0.95
2023-03-08T02:57:11.902Z,0.70
2023-03-08T02:59:41.010Z,0.93
2023-03-08T03:02:10.148Z,0.85
2023-03-08T03:04:39.557Z,0.70
2023-03-08T03:07:08.621Z,0.80
2023-03-08T03:09:38.663Z,0.80
2023-03-08T03:12:08.256Z,0.70
2023-03-08T03:14:42.264Z,0.70
2023-03-08T03:17:11.867Z,0.80
2023-03-08T03:19:41.145Z,0.60
2023-03-08T03:22:10.123Z,0.60
2023-03-08T03:24:39.129Z,0.70
2023-03-08T03:27:09.637Z,0.70
2023-03-08T03:29:41.916Z,0.73
2023-03-08T03:32:15.762Z,0.93
2023-03-08T03:34:45.572Z,0.55
2023-03-08T03:37:14.992Z,0.60
2023-03-08T03:39:44.176Z,0.55
2023-03-08T03:42:16.264Z,0.65
2023-03-08T03:44:54.195Z,0.50
2023-03-08T03:47:24.185Z,0.70
2023-03-08T03:49:58.128Z,0.85
2023-03-08T03:52:29.788Z,0.70
2023-03-08T03:55:03.978Z,0.82
2023-03-08T03:57:33.244Z,0.85
2023-03-08T04:00:06.161Z,0.70
2023-03-08T04:02:43.098Z,1.33
2023-03-08T04:05:15.465Z,0.75
2023-03-08T04:07:49.568Z,0.60
2023-03-08T04:10:19.285Z,0.88
2023-03-08T04:12:50.104Z,0.70
2023-03-08T04:15:22.061Z,0.80
2023-03-08T04:17:53.093Z,0.80
2023-03-08T04:20:25.160Z,0.70
2023-03-08T04:22:59.506Z,0.70
2023-03-08T04:25:34.584Z,0.70
2023-03-08T04:28:06.038Z,0.85
2023-03-08T04:30:36.664Z,0.70
2023-03-08T04:33:07.919Z,0.60
2023-03-08T04:35:45.232Z,0.70
2023-03-08T04:38:15.412Z,0.70
2023-03-08T04:41:10.453Z,0.88
2023-03-08T04:44:02.868Z,0.70
2023-03-08T04:46:39.391Z,0.60
2023-03-08T04:51:43.233Z,0.70
2023-03-08T04:54:13.857Z,1.10
2023-03-08T04:56:48.777Z,0.60
2023-03-08T04:59:18.993Z,0.70
2023-03-08T05:01:49.640Z,0.70
2023-03-08T05:04:19.086Z,0.55
2023-03-08T05:06:49.252Z,0.77
2023-03-08T05:09:24.084Z,0.60
2023-03-08T05:11:54.844Z,0.60
2023-03-08T05:14:24.944Z,0.88
2023-03-08T05:16:57.662Z,0.68
2023-03-08T05:19:27.139Z,0.55
2023-03-08T05:21:56.943Z,0.63
2023-03-08T05:24:27.377Z,0.65
2023-03-08T05:26:58.371Z,0.75
2023-03-08T05:29:27.473Z,0.60
2023-03-08T05:31:59.040Z,0.60
2023-03-08T05:34:28.725Z,0.73
2023-03-08T05:36:59.866Z,0.70
2023-03-08T05:39:30.348Z,0.68
2023-03-08T05:42:08.650Z,0.60
2023-03-08T05:44:42.118Z,0.60
2023-03-08T05:47:15.250Z,0.70
2023-03-08T05:49:44.468Z,0.50
2023-03-08T05:52:14.673Z,0.60
2023-03-08T05:54:44.923Z,0.45
2023-03-08T05:57:18.705Z,0.60
2023-03-08T05:59:48.971Z,0.90
2023-03-08T06:02:22.902Z,0.60
2023-03-08T06:04:55.508Z,0.63
2023-03-08T06:10:01.209Z,1.02
2023-03-08T06:12:30.236Z,0.75
2023-03-08T06:15:05.529Z,0.80
2023-03-08T06:17:39.091Z,0.50
2023-03-08T06:20:09.465Z,0.90
2023-03-08T06:22:43.239Z,0.75
2023-03-08T06:25:13.560Z,0.60
2023-03-08T06:27:42.656Z,0.50
2023-03-08T06:30:21.662Z,0.85
2023-03-08T06:32:52.121Z,0.82
2023-03-08T06:35:21.281Z,0.70
2023-03-08T06:37:56.362Z,0.50
2023-03-08T06:40:25.428Z,0.60
2023-03-08T06:42:54.650Z,0.80
2023-03-08T06:45:23.942Z,0.70
2023-03-08T06:47:54.676Z,0.80
2023-03-08T06:50:23.975Z,0.50
2023-03-08T06:52:53.151Z,1.60
2023-03-08T06:55:31.004Z,0.80
2023-03-08T06:58:00.115Z,0.73
2023-03-08T07:00:29.458Z,1.02
2023-03-08T07:03:00.102Z,0.70
2023-03-08T07:05:29.536Z,0.85
2023-03-08T07:07:58.716Z,0.65
2023-03-08T07:10:27.879Z,0.80
2023-03-08T07:12:56.935Z,0.60
2023-03-08T07:15:26.617Z,0.80
2023-03-08T07:17:57.517Z,0.60
2023-03-08T07:20:28.700Z,0.70
2023-03-08T07:25:26.562Z,0.65
2023-03-08T07:27:55.769Z,0.80
2023-03-08T07:30:25.041Z,1.00
2023-03-08T07:32:54.983Z,1.00
2023-03-08T07:35:24.704Z,0.70
2023-03-08T07:37:55.213Z,0.80
2023-03-08T07:40:24.614Z,1.17
2023-03-08T07:42:53.731Z,1.10
2023-03-08T07:45:45.665Z,0.77
2023-03-08T07:48:14.737Z,0.90
2023-03-08T07:50:43.856Z,0.73
2023-03-08T07:53:14.280Z,1.05
2023-03-08T07:55:43.275Z,1.20
2023-03-08T07:58:12.278Z,0.80
2023-03-08T08:00:41.267Z,0.75
2023-03-08T08:03:10.441Z,0.93
2023-03-08T08:05:39.666Z,0.70
2023-03-08T08:08:09.366Z,1.00
2023-03-08T08:10:39.810Z,1.15
2023-03-08T08:13:08.954Z,0.85
2023-03-08T08:15:38.059Z,0.82
2023-03-08T08:18:07.508Z,0.68
2023-03-08T08:20:36.702Z,0.65
2023-03-08T08:23:07.735Z,0.90
2023-03-08T08:25:36.797Z,1.30
2023-03-08T08:28:07.406Z,1.08
2023-03-08T08:30:39.410Z,1.10
2023-03-08T08:33:08.485Z,0.93
2023-03-08T08:35:43.446Z,0.65
2023-03-08T08:38:12.807Z,0.80
2023-03-08T08:40:41.969Z,0.80
2023-03-08T08:43:12.442Z,0.70
2023-03-08T08:45:45.632Z,1.02
2023-03-08T08:48:15.512Z,0.90
2023-03-08T08:50:44.765Z,1.52
2023-03-08T08:53:13.852Z,0.93
2023-03-08T08:55:45.214Z,0.88
2023-03-08T08:58:16.310Z,0.95
2023-03-08T09:00:48.407Z,0.90
2023-03-08T09:03:17.638Z,0.80
2023-03-08T09:05:46.844Z,1.10
2023-03-08T09:08:16.129Z,0.80
2023-03-08T09:10:45.341Z,1.08
2023-03-08T09:13:16.123Z,1.10
2023-03-08T09:15:45.182Z,0.80
2023-03-08T09:18:14.346Z,1.38
2023-03-08T09:20:43.504Z,1.48
2023-03-08T09:23:12.644Z,2.15
2023-03-08T09:25:41.782Z,1.98
2023-03-08T09:28:12.266Z,2.00
2023-03-08T09:30:42.774Z,2.60
2023-03-08T09:33:11.831Z,2.17
2023-03-08T09:35:40.934Z,3.40
2023-03-08T09:38:10.044Z,3.22
2023-03-08T09:40:49.458Z,3.58
2023-03-08T09:43:27.346Z,3.53
2023-03-08T09:45:57.896Z,3.75
2023-03-08T09:48:30.846Z,3.92
2023-03-08T09:51:05.004Z,3.90
2023-03-08T09:53:37.049Z,4.22
2023-03-08T09:56:13.089Z,4.93
2023-03-08T09:58:45.137Z,4.82
2023-03-08T10:01:25.482Z,4.97
2023-03-08T10:04:15.076Z,5.77
2023-03-08T10:06:49.279Z,6.97
2023-03-08T10:09:31.844Z,7.07
2023-03-08T10:12:13.683Z,7.28
2023-03-08T10:14:46.216Z,6.63
2023-03-08T10:17:21.312Z,6.90
2023-03-08T10:19:55.601Z,8.60
2023-03-08T10:22:28.475Z,7.28
2023-03-08T10:25:02.068Z,8.32
2023-03-08T10:27:35.821Z,8.27
2023-03-08T10:30:15.214Z,7.68
2023-03-08T10:32:48.342Z,7.90
2023-03-08T10:35:18.820Z,8.18
2023-03-08T10:37:52.672Z,8.82
2023-03-08T10:40:23.125Z,8.23
2023-03-08T10:42:58.022Z,8.80
2023-03-08T10:45:28.704Z,8.80
2023-03-08T10:48:01.028Z,8.70
2023-03-08T10:50:32.377Z,8.63
2023-03-08T10:53:11.575Z,8.70
2023-03-08T10:55:45.522Z,7.85
2023-03-08T10:58:36.532Z,8.85
2023-03-08T11:01:08.106Z,8.57
2023-03-08T11:03:39.612Z,8.32
2023-03-08T11:06:16.407Z,7.70
2023-03-08T11:08:54.750Z,8.10
2023-03-08T11:11:24.430Z,8.52
2023-03-08T11:13:54.624Z,8.25
2023-03-08T11:16:38.466Z,8.52
2023-03-08T11:19:32.457Z,7.90
2023-03-08T11:22:11.452Z,8.40
2023-03-08T11:24:53.602Z,7.22
2023-03-08T11:27:33.367Z,6.55
2023-03-08T11:30:15.310Z,6.63
2023-03-08T11:33:01.859Z,7.20
2023-03-08T11:35:39.069Z,6.80
2023-03-08T11:38:13.577Z,7.57
2023-03-08T11:40:53.024Z,7.40
2023-03-08T11:43:35.161Z,8.32
2023-03-08T11:46:12.994Z,7.95
2023-03-08T11:48:53.999Z,7.88
2023-03-08T11:51:32.386Z,9.25
2023-03-08T11:54:16.335Z,7.93
2023-03-08T11:56:52.381Z,8.77
2023-03-08T11:59:28.384Z,7.75
2023-03-08T12:02:02.724Z,7.78
2023-03-08T12:04:37.157Z,7.78
2023-03-08T12:07:14.527Z,8.23
2023-03-08T12:09:52.513Z,9.40
2023-03-08T12:12:27.656Z,8.45
2023-03-08T12:15:00.890Z,9.70
2023-03-08T12:17:40.066Z,7.88
2023-03-08T12:20:15.689Z,8.63
2023-03-08T12:22:51.158Z,8.63
2023-03-08T12:25:27.904Z,8.77
2023-03-08T12:28:04.217Z,8.60
2023-03-08T12:30:50.731Z,8.65
2023-03-08T12:33:20.447Z,6.88
2023-03-08T12:35:55.379Z,6.55
2023-03-08T12:38:36.667Z,7.03
2023-03-08T12:43:38.730Z,6.67
2023-03-08T12:46:10.231Z,6.50
2023-03-08T12:48:42.264Z,7.10
2023-03-08T12:51:24.120Z,6.60
2023-03-08T12:54:03.028Z,6.50
2023-03-08T12:56:35.672Z,7.07
2023-03-08T12:59:30.008Z,6.78
2023-03-08T13:02:05.363Z,6.43
2023-03-08T13:04:41.392Z,7.03
2023-03-08T13:07:19.994Z,6.15
2023-03-08T13:09:56.133Z,6.65
2023-03-08T13:12:41.354Z,6.78
2023-03-08T13:15:23.267Z,6.47
2023-03-08T13:18:06.296Z,6.25
2023-03-08T13:20:52.219Z,5.93
2023-03-08T13:23:29.092Z,5.75
2023-03-08T13:26:15.786Z,5.70
2023-03-08T13:28:48.273Z,6.32
2023-03-08T13:31:19.206Z,5.60
2023-03-08T13:33:50.428Z,5.45
2023-03-08T13:38:58.786Z,5.13
2023-03-08T13:41:37.481Z,4.60
2023-03-08T13:44:08.329Z,5.35
2023-03-08T13:46:42.602Z,5.78
2023-03-08T13:49:16.513Z,5.32
2023-03-08T13:51:48.735Z,5.70
2023-03-08T13:54:26.802Z,5.72
2023-03-08T13:56:57.988Z,5.70
2023-03-08T14:01:56.814Z,5.38
2023-03-08T14:04:27.757Z,5.13
2023-03-08T14:06:58.567Z,5.60
2023-03-08T14:09:28.554Z,5.05
2023-03-08T14:12:02.066Z,5.20
2023-03-08T14:14:33.820Z,4.80
2023-03-08T14:17:03.411Z,5.05
2023-03-08T14:19:35.063Z,5.38
2023-03-08T14:22:11.507Z,5.40
2023-03-08T14:24:42.056Z,5.53
2023-03-08T14:30:13.080Z,4.47
2023-03-08T14:32:43.010Z,4.18
2023-03-08T14:35:21.296Z,4.07
2023-03-08T14:37:55.962Z,3.47
2023-03-08T14:40:29.763Z,3.63
2023-03-08T14:43:02.345Z,3.70
2023-03-08T14:45:36.103Z,3.47
2023-03-08T14:48:24.579Z,3.50
2023-03-08T14:50:56.627Z,3.25
2023-03-08T14:53:30.392Z,4.07
2023-03-08T14:55:59.919Z,4.22
2023-03-08T14:58:31.217Z,5.50
2023-03-08T15:01:03.477Z,4.57
2023-03-08T15:03:32.988Z,4.95
2023-03-08T15:06:08.763Z,4.80
2023-03-08T15:08:38.267Z,4.07
2023-03-08T15:11:08.532Z,5.35
2023-03-08T15:13:37.623Z,4.40
2023-03-08T15:16:13.228Z,6.30
2023-03-08T15:18:43.675Z,4.57
2023-03-08T15:21:16.177Z,3.72
2023-03-08T15:23:47.582Z,4.03
2023-03-08T15:26:23.396Z,3.20
2023-03-08T15:28:52.455Z,3.13
2023-03-08T15:31:22.987Z,3.10
2023-03-08T15:33:52.151Z,3.50
2023-03-08T15:36:21.274Z,3.00
2023-03-08T15:38:50.355Z,3.35
2023-03-08T15:41:19.800Z,3.25
2023-03-08T15:43:48.905Z,3.28
2023-03-08T15:46:18.114Z,3.75
2023-03-08T15:48:51.166Z,4.28
2023-03-08T15:51:22.344Z,5.13
2023-03-08T15:53:51.399Z,4.57
2023-03-08T15:56:20.514Z,5.13
2023-03-08T15:58:49.501Z,6.38
2023-03-08T16:01:18.674Z,6.63
2023-03-08T16:03:49.233Z,6.13
2023-03-08T16:06:19.400Z,5.90
2023-03-08T16:08:48.544Z,5.88
2023-03-08T16:11:21.228Z,6.53
2023-03-08T16:13:51.841Z,7.28
2023-03-08T16:16:24.467Z,5.72
2023-03-08T16:18:59.269Z,7.50
2023-03-08T16:21:28.286Z,5.88
2023-03-08T16:23:59.627Z,6.75
2023-03-08T16:26:28.716Z,6.05
2023-03-08T16:28:57.857Z,6.72
2023-03-08T16:31:27.091Z,7.00
2023-03-08T16:33:57.542Z,6.03
2023-03-08T16:36:26.659Z,6.82
2023-03-08T16:38:56.634Z,6.80
2023-03-08T16:41:26.378Z,8.13
2023-03-08T16:43:56.852Z,8.23
2023-03-08T16:46:26.056Z,8.52
2023-03-08T16:48:56.104Z,10.07
2023-03-08T16:51:28.935Z,9.00
2023-03-08T16:53:58.034Z,9.70
2023-03-08T16:56:29.476Z,9.85
2023-03-08T16:59:01.343Z,9.20
2023-03-08T17:01:31.405Z,8.07
2023-03-08T17:04:00.998Z,8.25
2023-03-08T17:06:33.064Z,10.13
2023-03-08T17:09:02.505Z,9.27
2023-03-08T17:11:34.071Z,9.60
2023-03-08T17:14:05.571Z,8.15
2023-03-08T17:16:35.688Z,7.38
2023-03-08T17:19:07.264Z,7.47
2023-03-08T17:21:38.558Z,6.88
2023-03-08T17:24:10.521Z,7.45
2023-03-08T17:26:43.269Z,6.68
2023-03-08T17:29:12.824Z,6.35
2023-03-08T17:31:42.921Z,6.43
2023-03-08T17:34:12.037Z,6.85
2023-03-08T17:36:42.622Z,7.88
2023-03-08T17:39:11.648Z,7.20
2023-03-08T17:41:40.740Z,6.93
2023-03-08T17:44:09.818Z,6.70
2023-03-08T17:46:39.297Z,6.45
2023-03-08T17:49:08.641Z,6.18
2023-03-08T17:51:38.250Z,7.13
2023-03-08T17:54:09.498Z,8.43
2023-03-08T17:56:40.965Z,7.85
2023-03-08T17:59:13.864Z,9.00
2023-03-08T18:01:43.289Z,8.82
2023-03-08T18:04:12.513Z,9.93
2023-03-08T18:06:43.624Z,9.38
2023-03-08T18:09:16.053Z,9.65
2023-03-08T18:11:45.400Z,10.13
2023-03-08T18:14:16.195Z,15.43
2023-03-08T18:16:45.596Z,9.93
2023-03-08T18:19:14.810Z,45.83
2023-03-08T18:21:43.970Z,29.55
2023-03-08T18:24:14.796Z,41.10
2023-03-08T18:26:44.012Z,13.95
2023-03-08T18:29:14.797Z,11.23
2023-03-08T18:31:44.028Z,18.63
2023-03-08T18:34:13.171Z,17.90
2023-03-08T18:36:42.495Z,12.07
2023-03-08T18:39:16.126Z,10.95
2023-03-08T18:41:45.285Z,16.25
2023-03-08T18:44:14.542Z,17.25
2023-03-08T18:46:43.746Z,14.88
2023-03-08T18:49:14.080Z,15.43
2023-03-08T18:51:44.256Z,15.17
2023-03-08T18:54:15.745Z,14.98
2023-03-08T18:56:46.198Z,14.90
2023-03-08T18:59:15.544Z,14.10
2023-03-08T19:01:45.396Z,19.42
2023-03-08T19:04:14.599Z,18.73
2023-03-08T19:06:44.277Z,15.98
2023-03-08T19:09:16.063Z,15.55
2023-03-08T19:11:48.269Z,21.15
2023-03-08T19:14:18.901Z,15.05
2023-03-08T19:16:48.144Z,16.35
2023-03-08T19:19:18.236Z,15.60
2023-03-08T19:21:49.886Z,17.33
2023-03-08T19:24:21.344Z,16.52
2023-03-08T19:26:53.353Z,16.65
2023-03-08T19:29:24.051Z,19.92
2023-03-08T19:31:55.624Z,17.40
2023-03-08T19:34:26.723Z,32.47
2023-03-08T19:36:57.056Z,26.45
2023-03-08T19:39:28.803Z,15.93
2023-03-08T19:44:33.836Z,26.25
2023-03-08T19:47:04.718Z,28.98
2023-03-08T19:49:35.289Z,17.73
2023-03-08T19:52:06.720Z,13.48
2023-03-08T19:54:36.148Z,15.98
2023-03-08T19:57:07.564Z,22.55
2023-03-08T19:59:37.693Z,17.02
2023-03-08T20:02:07.654Z,18.65
2023-03-08T20:04:37.091Z,16.95
2023-03-08T20:07:06.150Z,16.08
2023-03-08T20:09:35.267Z,21.08
2023-03-08T20:12:04.581Z,20.08
2023-03-08T20:14:35.111Z,15.82
2023-03-08T20:17:05.235Z,32.05
2023-03-08T20:19:35.793Z,19.23
2023-03-08T20:22:06.096Z,19.00
2023-03-08T20:24:35.278Z,17.30
2023-03-08T20:27:05.284Z,17.85
2023-03-08T20:29:35.891Z,21.13
2023-03-08T20:32:05.130Z,15.35
2023-03-08T20:34:34.222Z,13.82
2023-03-08T20:37:03.307Z,22.17
2023-03-08T20:39:32.506Z,24.85
2023-03-08T20:42:01.742Z,16.30
2023-03-08T20:44:30.817Z,14.52
2023-03-08T20:47:01.541Z,12.68
2023-03-08T20:49:30.587Z,12.13
2023-03-08T20:51:59.948Z,11.20
2023-03-08T20:54:29.310Z,14.68
2023-03-08T20:56:59.148Z,13.40
2023-03-08T20:59:28.738Z,11.55
2023-03-08T21:01:58.994Z,12.30
2023-03-08T21:04:29.554Z,14.77
2023-03-08T21:06:58.690Z,14.20
2023-03-08T21:09:27.854Z,13.35
2023-03-08T21:11:56.938Z,12.63
2023-03-08T21:14:26.279Z,12.50
2023-03-08T21:16:55.273Z,12.95
2023-03-08T21:19:24.709Z,11.75
2023-03-08T21:21:55.141Z,12.98
2023-03-08T21:24:24.393Z,14.15
2023-03-08T21:26:53.935Z,11.10
2023-03-08T21:29:23.754Z,14.05
2023-03-08T21:31:54.228Z,16.45
2023-03-08T21:34:23.485Z,14.02
2023-03-08T21:36:52.614Z,14.63
2023-03-08T21:39:23.040Z,15.32
2023-03-08T21:41:53.078Z,15.05
2023-03-08T21:44:22.503Z,13.23
2023-03-08T21:46:52.635Z,12.25
2023-03-08T21:49:24.434Z,11.20
2023-03-08T21:51:55.038Z,10.80
2023-03-08T21:54:26.690Z,10.70
2023-03-08T21:56:57.228Z,9.10
2023-03-08T21:59:30.563Z,11.68
2023-03-08T22:01:59.802Z,13.50
2023-03-08T22:04:29.372Z,13.13
2023-03-08T22:06:58.678Z,11.45
2023-03-08T22:09:29.371Z,18.95
2023-03-08T22:11:59.476Z,12.63
2023-03-08T22:14:28.952Z,11.30
2023-03-08T22:16:58.107Z,11.63
2023-03-08T22:19:27.336Z,13.60
2023-03-08T22:21:58.553Z,12.20
2023-03-08T22:26:57.833Z,10.70
2023-03-08T22:29:26.917Z,13.52
2023-03-08T22:31:56.138Z,11.85
2023-03-08T22:34:25.200Z,11.23
2023-03-08T22:36:54.669Z,10.48
2023-03-08T22:39:23.775Z,12.30
2023-03-08T22:41:54.515Z,14.50
2023-03-08T22:44:23.954Z,12.60
2023-03-08T22:46:53.020Z,10.43
2023-03-08T22:49:22.355Z,10.93
2023-03-08T22:51:52.526Z,10.15
2023-03-08T22:54:23.987Z,10.35
2023-03-08T22:56:54.984Z,11.77
2023-03-08T22:59:25.806Z,11.32
2023-03-08T23:01:55.392Z,12.07
2023-03-08T23:04:24.569Z,10.18
2023-03-08T23:06:53.766Z,9.90
2023-03-08T23:09:23.404Z,12.43
2023-03-08T23:11:54.106Z,13.70
2023-03-08T23:14:23.406Z,12.27
2023-03-08T23:16:52.850Z,17.63
2023-03-08T23:19:23.219Z,22.45
2023-03-08T23:21:52.489Z,9.00
2023-03-08T23:24:21.775Z,29.92
2023-03-08T23:26:54.248Z,17.27
2023-03-08T23:29:24.964Z,22.10
2023-03-08T23:31:54.243Z,15.63
2023-03-08T23:34:23.824Z,15.48
2023-03-08T23:36:52.954Z,9.93
2023-03-08T23:39:22.572Z,11.27
2023-03-08T23:41:51.894Z,10.35
2023-03-08T23:44:21.148Z,14.55
2023-03-08T23:46:51.644Z,14.75
2023-03-08T23:49:20.834Z,20.98
2023-03-08T23:51:49.892Z,15.32
2023-03-08T23:54:19.085Z,18.38
2023-03-08T23:56:48.316Z,35.05
2023-03-08T23:59:19.521Z,32.63
